Avoca, Illinois
Current Conditions -  °F | °C
As of 11:35 AM on Thursday 30 Oct 2014 (Local Time) from KPNT Reporting Station
Broken Clouds Broken Clouds  
Wind Chill:   Ceiling: 11000
Heat Index: 10°   Visibility: 10mi
Dew Point:   Wind: 10mph
Humidity: 63%   Direction: 190°S
Pressure: 30.14"   Gusts: NA
Location:  40.7318°N, 88.524°W
Report Text: KPNT 301635Z AUTO 19009KT 10SM BKN110 10/03 A3014 RMK AO2 T00980031
Loading
Personal Weather Stations






























Interactive Weather Map New forecast layout! Learn more

10-Day Weather Forecast

Advertisements
Track Severe Weather on mobile